sensor_id;sensor_type;location;lat;lon;timestamp;pressure;altitude;pressure_sealevel;temperature;humidity
78309;BME280;67566;42.022;21.356;2023-03-23T00:00:59;98628.44;;;5.53;78.89
78309;BME280;67566;42.022;21.356;2023-03-23T00:03:26;98625.53;;;5.49;79.08
78309;BME280;67566;42.022;21.356;2023-03-23T00:05:59;98623.41;;;5.46;79.14
78309;BME280;67566;42.022;21.356;2023-03-23T00:08:31;98625.53;;;5.44;78.34
78309;BME280;67566;42.022;21.356;2023-03-23T00:10:56;98618.66;;;5.43;79.39
78309;BME280;67566;42.022;21.356;2023-03-23T00:13:27;98618.94;;;5.42;78.96
78309;BME280;67566;42.022;21.356;2023-03-23T00:15:53;98616.81;;;5.39;78.53
78309;BME280;67566;42.022;21.356;2023-03-23T00:18:19;98613.41;;;5.33;78.80
78309;BME280;67566;42.022;21.356;2023-03-23T00:20:53;98617.88;;;5.27;79.35
78309;BME280;67566;42.022;21.356;2023-03-23T00:23:18;98615.22;;;5.22;79.54
78309;BME280;67566;42.022;21.356;2023-03-23T00:25:46;98606.28;;;5.18;79.76
78309;BME280;67566;42.022;21.356;2023-03-23T00:28:12;98619.47;;;5.13;79.49
78309;BME280;67566;42.022;21.356;2023-03-23T00:30:38;98614.44;;;5.11;78.80
78309;BME280;67566;42.022;21.356;2023-03-23T00:33:04;98619.47;;;5.13;79.01
78309;BME280;67566;42.022;21.356;2023-03-23T00:35:30;98617.09;;;5.11;79.20
78309;BME280;67566;42.022;21.356;2023-03-23T00:37:56;98614.97;;;5.14;79.41
78309;BME280;67566;42.022;21.356;2023-03-23T00:40:24;98607.34;;;5.12;79.48
78309;BME280;67566;42.022;21.356;2023-03-23T00:42:49;98611.28;;;5.09;79.31
78309;BME280;67566;42.022;21.356;2023-03-23T00:45:15;98614.72;;;5.10;79.22
78309;BME280;67566;42.022;21.356;2023-03-23T00:47:41;98607.59;;;5.10;79.85
78309;BME280;67566;42.022;21.356;2023-03-23T00:50:12;98606.53;;;5.06;79.64
78309;BME280;67566;42.022;21.356;2023-03-23T00:52:39;98596.78;;;5.02;80.23
78309;BME280;67566;42.022;21.356;2023-03-23T00:55:06;98605.75;;;5.01;79.37
78309;BME280;67566;42.022;21.356;2023-03-23T00:57:31;98603.34;;;4.99;79.90
78309;BME280;67566;42.022;21.356;2023-03-23T00:59:57;98600.47;;;4.96;79.91
78309;BME280;67566;42.022;21.356;2023-03-23T01:02:23;98601.78;;;4.93;79.69
78309;BME280;67566;42.022;21.356;2023-03-23T01:04:50;98590.72;;;4.91;79.94
78309;BME280;67566;42.022;21.356;2023-03-23T01:07:18;98604.16;;;4.89;80.70
78309;BME280;67566;42.022;21.356;2023-03-23T01:09:47;98605.47;;;4.87;79.93
78309;BME280;67566;42.022;21.356;2023-03-23T01:12:13;98603.34;;;4.84;80.07
78309;BME280;67566;42.022;21.356;2023-03-23T01:14:41;98607.56;;;4.80;80.23
78309;BME280;67566;42.022;21.356;2023-03-23T01:17:06;98611.53;;;4.77;80.30
78309;BME280;67566;42.022;21.356;2023-03-23T01:19:32;98602.03;;;4.71;80.08
78309;BME280;67566;42.022;21.356;2023-03-23T01:21:58;98607.53;;;4.64;81.41
78309;BME280;67566;42.022;21.356;2023-03-23T01:24:23;98599.63;;;4.59;80.94
78309;BME280;67566;42.022;21.356;2023-03-23T01:26:49;98608.84;;;4.57;80.82
78309;BME280;67566;42.022;21.356;2023-03-23T01:29:14;98607.50;;;4.54;81.20
78309;BME280;67566;42.022;21.356;2023-03-23T01:31:40;98606.97;;;4.52;81.19
78309;BME280;67566;42.022;21.356;2023-03-23T01:34:07;98605.69;;;4.49;80.52
78309;BME280;67566;42.022;21.356;2023-03-23T01:36:33;98601.69;;;4.47;80.54
78309;BME280;67566;42.022;21.356;2023-03-23T01:39:00;98599.56;;;4.44;80.96
78309;BME280;67566;42.022;21.356;2023-03-23T01:41:27;98604.06;;;4.43;80.68
78309;BME280;67566;42.022;21.356;2023-03-23T01:46:43;98600.38;;;4.39;80.61
78309;BME280;67566;42.022;21.356;2023-03-23T01:51:51;98598.00;;;4.38;80.89
78309;BME280;67566;42.022;21.356;2023-03-23T01:54:19;98597.47;;;4.35;81.28
78309;BME280;67566;42.022;21.356;2023-03-23T01:57:07;98594.56;;;4.37;81.64
78309;BME280;67566;42.022;21.356;2023-03-23T01:59:35;98601.13;;;4.34;81.53
78309;BME280;67566;42.022;21.356;2023-03-23T02:02:01;98599.00;;;4.31;81.54
78309;BME280;67566;42.022;21.356;2023-03-23T02:04:29;98607.22;;;4.30;81.00
78309;BME280;67566;42.022;21.356;2023-03-23T02:06:56;98611.38;;;4.26;81.12
78309;BME280;67566;42.022;21.356;2023-03-23T02:09:24;98606.09;;;4.21;81.27
78309;BME280;67566;42.022;21.356;2023-03-23T02:11:50;98608.72;;;4.15;81.92
78309;BME280;67566;42.022;21.356;2023-03-23T02:14:18;98606.34;;;4.14;81.14
78309;BME280;67566;42.022;21.356;2023-03-23T02:22:42;98618.66;;;4.03;81.79
78309;BME280;67566;42.022;21.356;2023-03-23T02:25:19;98618.38;;;3.94;81.30
78309;BME280;67566;42.022;21.356;2023-03-23T02:28:00;98623.59;;;3.89;81.35
78309;BME280;67566;42.022;21.356;2023-03-23T02:35:51;98623.28;;;3.81;81.11
78309;BME280;67566;42.022;21.356;2023-03-23T02:38:21;98619.34;;;3.78;81.80
78309;BME280;67566;42.022;21.356;2023-03-23T02:40:50;98630.66;;;3.78;81.30
78309;BME280;67566;42.022;21.356;2023-03-23T02:43:21;98631.72;;;3.77;81.67
78309;BME280;67566;42.022;21.356;2023-03-23T02:45:49;98632.75;;;3.76;81.71
78309;BME280;67566;42.022;21.356;2023-03-23T02:48:18;98633.81;;;3.75;81.57
78309;BME280;67566;42.022;21.356;2023-03-23T02:50:47;98635.91;;;3.73;82.00
78309;BME280;67566;42.022;21.356;2023-03-23T02:53:18;98636.97;;;3.72;81.80
78309;BME280;67566;42.022;21.356;2023-03-23T02:55:47;98634.34;;;3.72;81.64
78309;BME280;67566;42.022;21.356;2023-03-23T02:58:14;98637.22;;;3.71;81.40
78309;BME280;67566;42.022;21.356;2023-03-23T03:00:40;98643.75;;;3.68;81.41
78309;BME280;67566;42.022;21.356;2023-03-23T03:03:12;98648.25;;;3.68;81.54
78309;BME280;67566;42.022;21.356;2023-03-23T03:06:14;98650.88;;;3.68;82.26
78309;BME280;67566;42.022;21.356;2023-03-23T03:08:51;98649.25;;;3.62;82.46
78309;BME280;67566;42.022;21.356;2023-03-23T03:11:19;98660.56;;;3.57;82.45
78309;BME280;67566;42.022;21.356;2023-03-23T03:14:04;98656.56;;;3.54;81.70
78309;BME280;67566;42.022;21.356;2023-03-23T03:16:32;98662.84;;;3.48;82.21
78309;BME280;67566;42.022;21.356;2023-03-23T03:19:10;98667.28;;;3.43;82.06
78309;BME280;67566;42.022;21.356;2023-03-23T03:21:40;98665.41;;;3.38;81.78
78309;BME280;67566;42.022;21.356;2023-03-23T03:24:08;98658.78;;;3.35;81.86
78309;BME280;67566;42.022;21.356;2023-03-23T03:26:38;98665.91;;;3.35;82.35
78309;BME280;67566;42.022;21.356;2023-03-23T03:29:05;98661.94;;;3.32;81.58
78309;BME280;67566;42.022;21.356;2023-03-23T03:31:38;98661.41;;;3.30;82.45
78309;BME280;67566;42.022;21.356;2023-03-23T03:34:05;98662.44;;;3.29;81.76
78309;BME280;67566;42.022;21.356;2023-03-23T03:36:33;98667.72;;;3.29;82.63
78309;BME280;67566;42.022;21.356;2023-03-23T03:39:05;98662.94;;;3.26;82.30
78309;BME280;67566;42.022;21.356;2023-03-23T03:41:33;98667.13;;;3.22;82.03
78309;BME280;67566;42.022;21.356;2023-03-23T03:43:59;98662.09;;;3.20;82.17
78309;BME280;67566;42.022;21.356;2023-03-23T03:46:25;98666.84;;;3.18;82.50
78309;BME280;67566;42.022;21.356;2023-03-23T03:48:53;98662.59;;;3.17;82.65
78309;BME280;67566;42.022;21.356;2023-03-23T03:51:18;98674.19;;;3.16;82.62
78309;BME280;67566;42.022;21.356;2023-03-23T03:53:44;98674.19;;;3.16;83.15
78309;BME280;67566;42.022;21.356;2023-03-23T03:56:09;98665.47;;;3.16;82.24
78309;BME280;67566;42.022;21.356;2023-03-23T03:58:35;98669.94;;;3.15;83.10
78309;BME280;67566;42.022;21.356;2023-03-23T04:01:02;98668.34;;;3.14;82.63
78309;BME280;67566;42.022;21.356;2023-03-23T04:03:28;98666.25;;;3.11;82.37
78309;BME280;67566;42.022;21.356;2023-03-23T04:05:55;98668.31;;;3.09;82.24
78309;BME280;67566;42.022;21.356;2023-03-23T04:08:22;98669.13;;;3.10;82.83
78309;BME280;67566;42.022;21.356;2023-03-23T04:10:48;98666.75;;;3.08;82.59
78309;BME280;67566;42.022;21.356;2023-03-23T04:13:14;98665.94;;;3.08;83.12
78309;BME280;67566;42.022;21.356;2023-03-23T04:15:40;98660.94;;;3.06;82.48
78309;BME280;67566;42.022;21.356;2023-03-23T04:18:05;98659.59;;;3.03;82.59
78309;BME280;67566;42.022;21.356;2023-03-23T04:20:31;98664.06;;;3.03;83.01
78309;BME280;67566;42.022;21.356;2023-03-23T04:22:57;98662.22;;;3.03;83.39
78309;BME280;67566;42.022;21.356;2023-03-23T04:25:23;98666.94;;;3.01;82.40
78309;BME280;67566;42.022;21.356;2023-03-23T04:27:50;98673.50;;;2.99;82.59
78309;BME280;67566;42.022;21.356;2023-03-23T04:30:20;98660.59;;;2.97;82.36
78309;BME280;67566;42.022;21.356;2023-03-23T04:32:48;98671.91;;;2.98;82.61
78309;BME280;67566;42.022;21.356;2023-03-23T04:35:17;98674.28;;;2.99;82.40
78309;BME280;67566;42.022;21.356;2023-03-23T04:37:43;98669.56;;;3.01;83.19
78309;BME280;67566;42.022;21.356;2023-03-23T04:40:09;98679.84;;;3.03;82.84
78309;BME280;67566;42.022;21.356;2023-03-23T04:42:41;98673.28;;;3.06;82.61
78309;BME280;67566;42.022;21.356;2023-03-23T04:45:10;98679.88;;;3.08;82.82
78309;BME280;67566;42.022;21.356;2023-03-23T04:47:36;98680.44;;;3.10;82.10
78309;BME280;67566;42.022;21.356;2023-03-23T04:50:10;98684.44;;;3.18;82.59
78309;BME280;67566;42.022;21.356;2023-03-23T04:52:37;98686.97;;;3.35;82.81
78309;BME280;67566;42.022;21.356;2023-03-23T04:55:06;98685.03;;;3.57;82.00
78309;BME280;67566;42.022;21.356;2023-03-23T04:57:32;98687.84;;;3.83;81.86
78309;BME280;67566;42.022;21.356;2023-03-23T04:59:59;98694.09;;;4.14;82.06
78309;BME280;67566;42.022;21.356;2023-03-23T05:02:24;98701.13;;;4.51;81.09
78309;BME280;67566;42.022;21.356;2023-03-23T05:04:50;98704.38;;;4.79;79.89
78309;BME280;67566;42.022;21.356;2023-03-23T05:07:16;98707.34;;;5.08;79.13
78309;BME280;67566;42.022;21.356;2023-03-23T05:09:41;98712.13;;;5.42;78.58
78309;BME280;67566;42.022;21.356;2023-03-23T05:12:09;98716.38;;;5.69;77.22
78309;BME280;67566;42.022;21.356;2023-03-23T05:14:35;98711.06;;;5.95;76.15
78309;BME280;67566;42.022;21.356;2023-03-23T05:17:01;98713.88;;;6.39;75.41
78309;BME280;67566;42.022;21.356;2023-03-23T05:19:27;98725.53;;;6.98;74.11
78309;BME280;67566;42.022;21.356;2023-03-23T05:21:54;98725.03;;;7.41;71.78
78309;BME280;67566;42.022;21.356;2023-03-23T05:24:19;98720.88;;;7.64;71.11
78309;BME280;67566;42.022;21.356;2023-03-23T05:26:45;98725.06;;;8.00;69.96
78309;BME280;67566;42.022;21.356;2023-03-23T05:29:14;98724.84;;;8.49;69.56
78309;BME280;67566;42.022;21.356;2023-03-23T05:31:39;98728.16;;;9.03;68.23
78309;BME280;67566;42.022;21.356;2023-03-23T05:34:05;98728.44;;;9.73;66.90
78309;BME280;67566;42.022;21.356;2023-03-23T05:36:31;98725.78;;;12.24;63.37
78309;BME280;67566;42.022;21.356;2023-03-23T05:38:56;98730.09;;;16.40;53.21
78309;BME280;67566;42.022;21.356;2023-03-23T05:41:25;98721.09;;;19.72;43.44
78309;BME280;67566;42.022;21.356;2023-03-23T05:43:51;98728.06;;;22.35;37.81
78309;BME280;67566;42.022;21.356;2023-03-23T05:46:16;98732.72;;;24.54;32.77
78309;BME280;67566;42.022;21.356;2023-03-23T05:48:43;98733.03;;;26.36;30.18
78309;BME280;67566;42.022;21.356;2023-03-23T05:51:08;98735.41;;;27.44;27.93
78309;BME280;67566;42.022;21.356;2023-03-23T05:53:35;98732.50;;;29.00;26.71
78309;BME280;67566;42.022;21.356;2023-03-23T05:56:01;98736.75;;;29.98;25.04
78309;BME280;67566;42.022;21.356;2023-03-23T05:58:27;98741.94;;;31.04;23.72
78309;BME280;67566;42.022;21.356;2023-03-23T06:00:52;98753.38;;;32.22;22.70
78309;BME280;67566;42.022;21.356;2023-03-23T06:03:18;98743.91;;;33.15;21.04
78309;BME280;67566;42.022;21.356;2023-03-23T06:05:44;98743.84;;;34.09;20.03
78309;BME280;67566;42.022;21.356;2023-03-23T06:08:11;98739.00;;;34.96;19.11
78309;BME280;67566;42.022;21.356;2023-03-23T06:10:37;98743.47;;;35.97;18.62
78309;BME280;67566;42.022;21.356;2023-03-23T06:13:03;98751.00;;;36.69;17.13
78309;BME280;67566;42.022;21.356;2023-03-23T06:15:29;98749.72;;;37.39;17.22
78309;BME280;67566;42.022;21.356;2023-03-23T06:18:00;98746.06;;;37.63;15.88
78309;BME280;67566;42.022;21.356;2023-03-23T06:20:25;98741.94;;;37.93;14.26
78309;BME280;67566;42.022;21.356;2023-03-23T06:22:51;98738.25;;;39.11;15.51
78309;BME280;67566;42.022;21.356;2023-03-23T06:25:17;98742.03;;;39.77;14.69
78309;BME280;67566;42.022;21.356;2023-03-23T06:27:43;98737.81;;;40.42;14.14
78309;BME280;67566;42.022;21.356;2023-03-23T06:30:11;98739.66;;;40.67;14.24
78309;BME280;67566;42.022;21.356;2023-03-23T06:32:37;98743.53;;;41.15;13.22
78309;BME280;67566;42.022;21.356;2023-03-23T06:35:03;98747.38;;;41.46;12.94
78309;BME280;67566;42.022;21.356;2023-03-23T06:37:29;98742.78;;;40.81;13.19
78309;BME280;67566;42.022;21.356;2023-03-23T06:39:55;98731.84;;;40.83;12.93
78309;BME280;67566;42.022;21.356;2023-03-23T06:42:22;98738.63;;;42.12;11.91
78309;BME280;67566;42.022;21.356;2023-03-23T06:44:51;98740.50;;;42.51;12.43
78309;BME280;67566;42.022;21.356;2023-03-23T06:47:16;98732.19;;;43.42;10.95
78309;BME280;67566;42.022;21.356;2023-03-23T06:49:42;98730.78;;;44.03;11.87
78309;BME280;67566;42.022;21.356;2023-03-23T06:52:07;98724.41;;;44.79;11.56
78309;BME280;67566;42.022;21.356;2023-03-23T06:54:33;98735.47;;;45.09;10.63
78309;BME280;67566;42.022;21.356;2023-03-23T06:56:58;98740.16;;;44.49;11.56
78309;BME280;67566;42.022;21.356;2023-03-23T06:59:24;98740.09;;;44.55;11.26
78309;BME280;67566;42.022;21.356;2023-03-23T07:01:50;98736.53;;;44.17;10.33
78309;BME280;67566;42.022;21.356;2023-03-23T07:04:15;98737.75;;;45.11;10.27
78309;BME280;67566;42.022;21.356;2023-03-23T07:06:41;98730.50;;;43.58;10.62
78309;BME280;67566;42.022;21.356;2023-03-23T07:09:07;98737.59;;;45.03;10.37
78309;BME280;67566;42.022;21.356;2023-03-23T07:11:33;98733.25;;;45.34;11.00
78309;BME280;67566;42.022;21.356;2023-03-23T07:13:58;98736.25;;;45.23;10.39
78309;BME280;67566;42.022;21.356;2023-03-23T07:16:24;98731.88;;;45.41;10.33
78309;BME280;67566;42.022;21.356;2023-03-23T07:18:49;98728.22;;;44.81;10.02
78309;BME280;67566;42.022;21.356;2023-03-23T07:21:15;98727.28;;;44.92;9.72
78309;BME280;67566;42.022;21.356;2023-03-23T07:23:40;98730.38;;;45.53;8.75
78309;BME280;67566;42.022;21.356;2023-03-23T07:26:07;98723.66;;;45.70;8.49
78309;BME280;67566;42.022;21.356;2023-03-23T07:28:32;98735.13;;;45.98;8.66
78309;BME280;67566;42.022;21.356;2023-03-23T07:30:58;98736.31;;;46.64;7.94
78309;BME280;67566;42.022;21.356;2023-03-23T07:33:24;98729.38;;;45.05;9.12
78309;BME280;67566;42.022;21.356;2023-03-23T07:35:49;98740.53;;;45.70;9.14
78309;BME280;67566;42.022;21.356;2023-03-23T07:38:15;98735.25;;;45.93;8.60
78309;BME280;67566;42.022;21.356;2023-03-23T07:40:40;98730.22;;;44.67;9.02
78309;BME280;67566;42.022;21.356;2023-03-23T07:43:06;98722.91;;;44.97;9.67
78309;BME280;67566;42.022;21.356;2023-03-23T07:45:32;98730.13;;;44.35;9.82
78309;BME280;67566;42.022;21.356;2023-03-23T07:47:58;98726.25;;;43.51;10.02
78309;BME280;67566;42.022;21.356;2023-03-23T07:50:24;98723.91;;;43.55;10.33
78309;BME280;67566;42.022;21.356;2023-03-23T07:52:54;98731.78;;;43.56;9.54
78309;BME280;67566;42.022;21.356;2023-03-23T07:55:20;98722.53;;;44.49;9.42
78309;BME280;67566;42.022;21.356;2023-03-23T07:57:47;98721.25;;;44.31;10.09
78309;BME280;67566;42.022;21.356;2023-03-23T08:00:17;98720.66;;;44.38;9.98
78309;BME280;67566;42.022;21.356;2023-03-23T08:02:48;98718.91;;;44.35;8.74
78309;BME280;67566;42.022;21.356;2023-03-23T08:05:16;98717.38;;;43.16;10.57
78309;BME280;67566;42.022;21.356;2023-03-23T08:07:43;98716.66;;;44.34;10.63
78309;BME280;67566;42.022;21.356;2023-03-23T08:10:11;98717.94;;;44.84;9.09
78309;BME280;67566;42.022;21.356;2023-03-23T08:12:41;98723.84;;;44.67;9.16
78309;BME280;67566;42.022;21.356;2023-03-23T08:15:08;98719.44;;;46.03;8.91
78309;BME280;67566;42.022;21.356;2023-03-23T08:17:34;98718.59;;;46.56;9.12
78309;BME280;67566;42.022;21.356;2023-03-23T08:20:00;98720.19;;;45.90;8.59
78309;BME280;67566;42.022;21.356;2023-03-23T08:22:26;98718.28;;;45.72;8.40
78309;BME280;67566;42.022;21.356;2023-03-23T08:24:54;98716.63;;;44.53;9.48
78309;BME280;67566;42.022;21.356;2023-03-23T08:27:19;98718.53;;;44.63;10.20
78309;BME280;67566;42.022;21.356;2023-03-23T08:29:45;98710.44;;;44.41;9.45
78309;BME280;67566;42.022;21.356;2023-03-23T08:32:11;98710.34;;;44.65;9.04
78309;BME280;67566;42.022;21.356;2023-03-23T08:34:37;98717.97;;;45.16;9.67
78309;BME280;67566;42.022;21.356;2023-03-23T08:37:02;98714.38;;;45.88;9.48
78309;BME280;67566;42.022;21.356;2023-03-23T08:39:28;98717.19;;;46.49;8.54
78309;BME280;67566;42.022;21.356;2023-03-23T08:41:56;98717.34;;;46.86;7.38
78309;BME280;67566;42.022;21.356;2023-03-23T08:44:21;98707.50;;;45.30;9.26
78309;BME280;67566;42.022;21.356;2023-03-23T08:46:47;98695.13;;;44.74;8.95
78309;BME280;67566;42.022;21.356;2023-03-23T08:49:12;98697.88;;;46.19;9.15
78309;BME280;67566;42.022;21.356;2023-03-23T08:51:38;98702.25;;;46.97;7.80
78309;BME280;67566;42.022;21.356;2023-03-23T08:54:05;98694.00;;;45.55;8.70
78309;BME280;67566;42.022;21.356;2023-03-23T08:56:31;98693.53;;;42.68;10.58
78309;BME280;67566;42.022;21.356;2023-03-23T08:58:56;98690.44;;;43.63;10.35
78309;BME280;67566;42.022;21.356;2023-03-23T09:01:22;98685.13;;;42.68;10.47
78309;BME280;67566;42.022;21.356;2023-03-23T09:03:48;98687.09;;;43.09;10.20
78309;BME280;67566;42.022;21.356;2023-03-23T09:06:14;98687.69;;;43.57;9.99
78309;BME280;67566;42.022;21.356;2023-03-23T09:08:39;98685.88;;;44.03;10.83
78309;BME280;67566;42.022;21.356;2023-03-23T09:11:07;98693.38;;;40.27;11.24
78309;BME280;67566;42.022;21.356;2023-03-23T09:13:34;98688.81;;;38.06;13.15
78309;BME280;67566;42.022;21.356;2023-03-23T09:16:00;98679.53;;;39.46;12.57
78309;BME280;67566;42.022;21.356;2023-03-23T09:18:25;98680.81;;;41.39;11.34
78309;BME280;67566;42.022;21.356;2023-03-23T09:20:52;98678.09;;;42.92;9.56
78309;BME280;67566;42.022;21.356;2023-03-23T09:23:18;98677.75;;;41.42;11.13
78309;BME280;67566;42.022;21.356;2023-03-23T09:25:43;98674.25;;;40.97;11.37
78309;BME280;67566;42.022;21.356;2023-03-23T09:28:09;98678.53;;;42.24;10.86
78309;BME280;67566;42.022;21.356;2023-03-23T09:30:36;98668.44;;;42.51;10.40
78309;BME280;67566;42.022;21.356;2023-03-23T09:33:04;98661.81;;;42.90;10.27
78309;BME280;67566;42.022;21.356;2023-03-23T09:35:31;98667.06;;;42.22;10.32
78309;BME280;67566;42.022;21.356;2023-03-23T09:37:58;98661.44;;;42.69;10.27
78309;BME280;67566;42.022;21.356;2023-03-23T09:40:45;98655.72;;;39.07;11.72
78309;BME280;67566;42.022;21.356;2023-03-23T09:43:36;98649.78;;;39.00;12.13
78309;BME280;67566;42.022;21.356;2023-03-23T09:48:56;98639.25;;;36.98;12.83
78309;BME280;67566;42.022;21.356;2023-03-23T09:51:49;98639.47;;;35.20;14.93
78309;BME280;67566;42.022;21.356;2023-03-23T09:54:26;98636.91;;;31.60;17.45
78309;BME280;67566;42.022;21.356;2023-03-23T09:56:54;98622.13;;;29.86;19.05
78309;BME280;67566;42.022;21.356;2023-03-23T09:59:45;98613.09;;;29.19;18.99
78309;BME280;67566;42.022;21.356;2023-03-23T10:02:19;98621.94;;;28.07;21.44
78309;BME280;67566;42.022;21.356;2023-03-23T10:04:48;98618.84;;;28.05;21.11
78309;BME280;67566;42.022;21.356;2023-03-23T10:07:20;98617.00;;;27.47;22.11
78309;BME280;67566;42.022;21.356;2023-03-23T10:09:49;98613.72;;;25.95;24.24
78309;BME280;67566;42.022;21.356;2023-03-23T10:17:28;98600.09;;;24.54;25.13
78309;BME280;67566;42.022;21.356;2023-03-23T10:20:09;98602.88;;;24.33;26.30
78309;BME280;67566;42.022;21.356;2023-03-23T10:25:36;98588.13;;;23.33;27.69
78309;BME280;67566;42.022;21.356;2023-03-23T10:28:11;98583.09;;;23.49;27.14
78309;BME280;67566;42.022;21.356;2023-03-23T10:30:43;98590.31;;;22.80;29.10
78309;BME280;67566;42.022;21.356;2023-03-23T10:35:39;98584.03;;;22.66;28.86
78309;BME280;67566;42.022;21.356;2023-03-23T10:38:23;98589.00;;;22.49;29.02
78309;BME280;67566;42.022;21.356;2023-03-23T10:40:59;98576.81;;;22.21;29.41
78309;BME280;67566;42.022;21.356;2023-03-23T10:43:25;98582.94;;;22.08;29.20
78309;BME280;67566;42.022;21.356;2023-03-23T10:46:00;98569.78;;;21.58;29.61
78309;BME280;67566;42.022;21.356;2023-03-23T10:48:44;98565.69;;;21.34;29.70
78309;BME280;67566;42.022;21.356;2023-03-23T10:51:22;98570.69;;;21.31;28.65
78309;BME280;67566;42.022;21.356;2023-03-23T10:53:58;98565.31;;;21.39;29.31
78309;BME280;67566;42.022;21.356;2023-03-23T10:56:29;98562.53;;;21.28;29.04
78309;BME280;67566;42.022;21.356;2023-03-23T10:59:33;98557.97;;;21.36;28.84
78309;BME280;67566;42.022;21.356;2023-03-23T11:02:18;98560.97;;;21.68;27.65
78309;BME280;67566;42.022;21.356;2023-03-23T11:05:15;98556.53;;;21.97;27.98
78309;BME280;67566;42.022;21.356;2023-03-23T11:08:01;98557.66;;;21.93;28.02
78309;BME280;67566;42.022;21.356;2023-03-23T11:10:39;98557.25;;;21.91;28.45
78309;BME280;67566;42.022;21.356;2023-03-23T11:13:12;98553.31;;;21.81;28.79
78309;BME280;67566;42.022;21.356;2023-03-23T11:15:40;98556.88;;;21.92;27.98
78309;BME280;67566;42.022;21.356;2023-03-23T11:18:10;98549.97;;;21.98;28.18
78309;BME280;67566;42.022;21.356;2023-03-23T11:20:41;98542.69;;;22.17;27.21
78309;BME280;67566;42.022;21.356;2023-03-23T11:23:32;98541.38;;;21.89;27.95
78309;BME280;67566;42.022;21.356;2023-03-23T11:31:38;98520.09;;;21.43;28.51
78309;BME280;67566;42.022;21.356;2023-03-23T11:34:16;98524.34;;;21.44;28.86
78309;BME280;67566;42.022;21.356;2023-03-23T11:36:49;98515.97;;;21.56;29.07
78309;BME280;67566;42.022;21.356;2023-03-23T11:41:51;98519.19;;;21.73;27.43
78309;BME280;67566;42.022;21.356;2023-03-23T11:44:17;98513.75;;;21.69;27.40
78309;BME280;67566;42.022;21.356;2023-03-23T11:46:53;98505.94;;;21.60;28.24
78309;BME280;67566;42.022;21.356;2023-03-23T11:49:36;98513.31;;;21.60;28.07
78309;BME280;67566;42.022;21.356;2023-03-23T11:52:13;98503.16;;;21.46;28.08
78309;BME280;67566;42.022;21.356;2023-03-23T11:55:07;98506.16;;;21.41;27.90
78309;BME280;67566;42.022;21.356;2023-03-23T11:57:35;98503.78;;;21.32;27.08
78309;BME280;67566;42.022;21.356;2023-03-23T12:00:01;98504.94;;;21.35;27.33
78309;BME280;67566;42.022;21.356;2023-03-23T12:15:40;98476.25;;;21.30;26.92
78309;BME280;67566;42.022;21.356;2023-03-23T12:26:30;98465.63;;;21.07;27.51
78309;BME280;67566;42.022;21.356;2023-03-23T12:29:10;98464.88;;;21.06;27.71
78309;BME280;67566;42.022;21.356;2023-03-23T12:37:52;98454.50;;;21.16;27.25
78309;BME280;67566;42.022;21.356;2023-03-23T12:48:40;98447.78;;;20.95;27.24
78309;BME280;67566;42.022;21.356;2023-03-23T13:01:42;98444.09;;;20.73;28.04
78309;BME280;67566;42.022;21.356;2023-03-23T13:04:13;98442.75;;;20.60;27.06
78309;BME280;67566;42.022;21.356;2023-03-23T13:06:43;98442.13;;;20.36;26.73
78309;BME280;67566;42.022;21.356;2023-03-23T13:09:27;98437.16;;;20.42;27.25
78309;BME280;67566;42.022;21.356;2023-03-23T13:11:56;98436.09;;;20.50;28.36
78309;BME280;67566;42.022;21.356;2023-03-23T13:17:10;98425.63;;;20.45;29.15
78309;BME280;67566;42.022;21.356;2023-03-23T13:25:18;98411.69;;;20.09;28.92
78309;BME280;67566;42.022;21.356;2023-03-23T13:27:58;98406.72;;;20.14;28.90
78309;BME280;67566;42.022;21.356;2023-03-23T13:30:25;98405.53;;;20.12;28.39
78309;BME280;67566;42.022;21.356;2023-03-23T13:33:02;98409.38;;;20.11;28.76
78309;BME280;67566;42.022;21.356;2023-03-23T13:35:34;98404.84;;;20.18;28.11
78309;BME280;67566;42.022;21.356;2023-03-23T13:38:01;98406.16;;;19.98;28.29
78309;BME280;67566;42.022;21.356;2023-03-23T13:40:30;98399.75;;;19.79;28.61
78309;BME280;67566;42.022;21.356;2023-03-23T13:42:59;98391.50;;;19.72;28.41
78309;BME280;67566;42.022;21.356;2023-03-23T13:51:22;98395.13;;;19.80;28.15
78309;BME280;67566;42.022;21.356;2023-03-23T13:53:48;98395.13;;;19.80;28.30
78309;BME280;67566;42.022;21.356;2023-03-23T13:56:25;98392.88;;;19.86;28.95
78309;BME280;67566;42.022;21.356;2023-03-23T14:01:56;98392.88;;;19.86;28.62
78309;BME280;67566;42.022;21.356;2023-03-23T14:04:30;98401.88;;;19.67;28.89
78309;BME280;67566;42.022;21.356;2023-03-23T14:07:09;98389.88;;;19.64;28.67
78309;BME280;67566;42.022;21.356;2023-03-23T14:09:41;98395.97;;;19.57;28.93
78309;BME280;67566;42.022;21.356;2023-03-23T14:12:32;98385.94;;;19.58;28.77
78309;BME280;67566;42.022;21.356;2023-03-23T14:15:01;98380.47;;;19.54;28.79
78309;BME280;67566;42.022;21.356;2023-03-23T14:17:31;98381.56;;;19.50;29.06
78309;BME280;67566;42.022;21.356;2023-03-23T14:19:59;98385.03;;;19.47;29.89
78309;BME280;67566;42.022;21.356;2023-03-23T14:22:28;98388.84;;;19.46;28.97
78309;BME280;67566;42.022;21.356;2023-03-23T14:25:17;98386.19;;;19.49;28.48
78309;BME280;67566;42.022;21.356;2023-03-23T14:27:44;98374.63;;;19.49;28.66
78309;BME280;67566;42.022;21.356;2023-03-23T14:30:15;98380.03;;;19.49;29.78
78309;BME280;67566;42.022;21.356;2023-03-23T14:32:42;98373.78;;;19.44;29.62
78309;BME280;67566;42.022;21.356;2023-03-23T14:35:29;98372.25;;;19.43;29.57
78309;BME280;67566;42.022;21.356;2023-03-23T14:37:56;98367.22;;;19.42;30.21
78309;BME280;67566;42.022;21.356;2023-03-23T14:40:22;98373.50;;;19.53;29.08
78309;BME280;67566;42.022;21.356;2023-03-23T14:42:50;98374.00;;;19.59;28.63
78309;BME280;67566;42.022;21.356;2023-03-23T14:45:20;98369.72;;;19.58;28.69
78309;BME280;67566;42.022;21.356;2023-03-23T14:53:24;98372.78;;;19.56;28.71